Time;durP1;ratioP1;P1;durP2;ratioP2;P2;SDS_P1;SDS_P2;PMS_P1;PMS_P2;Temp;Humidity;BMP_temperature;BMP_pressure;BME280_temperature;BME280_humidity;BME280_pressure;Samples;Min_cycle;Max_cycle;Signal;HPM_P1;HPM_P2
2021/10/13 00:00:11;;;;;;;4.55;3.50;;;;;;;12.34;76.38;98960.88;5034184;28;20030;-76
2021/10/13 00:02:37;;;;;;;3.60;3.30;;;;;;;11.85;76.10;98885.31;5034124;28;20029;-77
2021/10/13 00:05:04;;;;;;;3.75;3.45;;;;;;;12.07;75.86;98910.59;5034211;28;20083;-76
2021/10/13 00:07:29;;;;;;;4.03;3.63;;;;;;;12.37;76.08;98963.13;5034145;28;20104;-77
2021/10/13 00:09:55;;;;;;;4.30;3.88;;;;;;;12.31;76.45;98948.06;5034077;28;20021;-77
2021/10/13 00:12:21;;;;;;;4.20;3.40;;;;;;;11.87;76.46;98874.53;5034063;28;20117;-76
2021/10/13 00:14:46;;;;;;;3.95;3.65;;;;;;;12.24;76.24;98928.72;5033930;28;20502;-77
2021/10/13 00:17:12;;;;;;;4.45;4.05;;;;;;;11.99;76.24;98894.91;5034039;28;20037;-77
2021/10/13 00:19:37;;;;;;;3.92;3.63;;;;;;;11.95;76.11;98906.91;5033757;28;20082;-77
2021/10/13 00:22:03;;;;;;;4.18;3.78;;;;;;;12.39;75.96;98955.78;5033949;28;20029;-77
2021/10/13 00:24:28;;;;;;;4.15;3.85;;;;;;;12.08;75.62;98912.22;5016163;28;20086;-77
2021/10/13 00:26:54;;;;;;;4.03;3.65;;;;;;;11.89;75.68;98886.56;5033731;28;20034;-76
2021/10/13 00:29:20;;;;;;;4.65;4.25;;;;;;;12.33;75.40;98953.97;5033577;28;20022;-76
2021/10/13 00:31:46;;;;;;;4.63;4.22;;;;;;;11.95;75.95;98909.56;5033607;28;20029;-77
2021/10/13 00:34:11;;;;;;;4.60;4.20;;;;;;;12.24;75.69;98958.63;5033525;28;20033;-76
2021/10/13 00:36:37;;;;;;;4.60;4.20;;;;;;;12.25;75.42;98962.09;5033629;28;20100;-76
2021/10/13 00:39:03;;;;;;;4.47;4.07;;;;;;;12.24;75.29;98963.94;5033448;28;20021;-76
2021/10/13 00:41:28;;;;;;;4.45;3.85;;;;;;;11.89;75.35;98918.31;5033503;28;20025;-77
2021/10/13 00:43:53;;;;;;;4.07;3.78;;;;;;;12.08;75.12;98936.03;5015706;28;20486;-77
2021/10/13 00:46:19;;;;;;;5.07;4.53;;;;;;;12.21;74.72;98961.69;5015543;28;20418;-76
2021/10/13 00:48:44;;;;;;;4.45;4.05;;;;;;;11.88;75.31;98915.84;5033246;28;20052;-77
2021/10/13 00:51:10;;;;;;;4.72;4.28;;;;;;;11.63;75.13;98886.47;5015422;28;20545;-76
2021/10/13 00:53:35;;;;;;;5.25;4.75;;;;;;;12.15;74.64;98965.16;5033314;28;20461;-77
2021/10/13 00:56:01;;;;;;;5.22;4.80;;;;;;;11.97;74.92;98939.28;5033093;28;20029;-77
2021/10/13 00:58:27;;;;;;;6.47;4.90;;;;;;;11.78;74.64;98903.00;5032996;28;20029;-76
2021/10/13 01:01:00;;;;;;;6.70;5.18;;;;;;;11.59;74.54;98879.97;5033207;28;20025;-77
2021/10/13 01:03:47;;;;;;;6.53;5.47;;;;;;;12.05;74.16;98960.25;5032960;28;20034;-77
2021/10/13 01:06:27;;;;;;;5.88;5.28;;;;;;;12.01;74.56;98968.78;5033161;28;20486;-76
2021/10/13 01:09:07;;;;;;;6.35;5.53;;;;;;;12.00;73.65;98973.28;5033024;28;20568;-77
2021/10/13 01:11:54;;;;;;;6.25;5.65;;;;;;;12.01;74.24;98968.78;5032712;28;20100;-76
2021/10/13 01:14:26;;;;;;;7.28;6.20;;;;;;;11.98;73.76;98966.56;5032761;28;20052;-77
2021/10/13 01:17:11;;;;;;;;;;;;;;;11.83;74.17;98966.69;5015108;28;20107;-76
2021/10/13 01:19:46;;;;;;;7.72;6.93;;;;;;;11.86;74.42;98971.59;5014869;28;19979;-76
2021/10/13 01:22:29;;;;;;;7.68;6.93;;;;;;;11.90;74.44;98974.69;5032094;28;20029;-76
2021/10/13 01:25:13;;;;;;;7.05;6.35;;;;;;;11.92;74.03;98970.81;5032625;28;20025;-76
2021/10/13 01:27:52;;;;;;;9.07;8.18;;;;;;;11.97;73.47;98976.31;5032343;28;20029;-77
2021/10/13 01:30:18;;;;;;;10.93;7.60;;;;;;;11.49;73.40;98895.41;5014484;28;20560;-76
2021/10/13 01:32:51;;;;;;;8.52;7.72;;;;;;;11.64;73.36;98923.28;5032252;28;20052;-76
2021/10/13 01:35:19;;;;;;;8.05;7.32;;;;;;;11.82;72.91;98948.38;5032517;28;20105;-76
2021/10/13 01:37:52;;;;;;;8.10;7.25;;;;;;;12.00;73.22;98975.91;5032446;28;20102;-76
2021/10/13 01:40:21;;;;;;;8.75;7.88;;;;;;;12.04;73.42;98978.97;5014630;28;20120;-76
2021/10/13 01:42:50;;;;;;;8.73;7.75;;;;;;;12.05;73.19;98980.59;5032365;28;20112;-76
2021/10/13 01:45:17;;;;;;;9.35;8.43;;;;;;;11.37;72.84;98874.00;5032428;28;20033;-77
2021/10/13 01:47:46;;;;;;;8.50;7.60;;;;;;;11.87;73.33;98967.13;5032500;28;20029;-77
2021/10/13 01:50:13;;;;;;;9.27;7.70;;;;;;;11.89;72.92;98958.00;5014629;28;20021;-77
2021/10/13 01:52:40;;;;;;;9.55;8.65;;;;;;;11.77;72.84;98954.25;5032136;28;20025;-76
2021/10/13 01:55:07;;;;;;;9.35;8.35;;;;;;;12.05;73.02;98980.59;5032203;28;20029;-77
2021/10/13 01:57:33;;;;;;;9.43;8.38;;;;;;;11.61;72.40;98914.94;5032043;28;20039;-77
2021/10/13 02:00:05;;;;;;;9.70;8.70;;;;;;;11.61;72.27;98915.75;5032082;28;20083;-76
2021/10/13 02:02:32;;;;;;;11.75;8.45;;;;;;;11.99;72.44;98986.69;5031839;28;20116;-77
2021/10/13 02:04:58;;;;;;;11.23;9.85;;;;;;;11.98;72.43;98991.19;5031889;28;20033;-76
2021/10/13 02:07:26;;;;;;;10.63;8.50;;;;;;;12.00;72.11;98989.16;5031977;28;20037;-77
2021/10/13 02:09:54;;;;;;;9.55;8.60;;;;;;;11.98;72.39;98993.00;5031698;28;20083;-76
2021/10/13 02:12:21;;;;;;;11.48;9.50;;;;;;;11.53;72.09;98926.50;5031761;28;20049;-76
2021/10/13 02:14:48;;;;;;;9.52;8.45;;;;;;;12.02;72.27;99000.34;5031380;28;20414;-77
2021/10/13 02:17:17;;;;;;;10.10;9.10;;;;;;;12.01;71.64;99004.00;5031460;28;20029;-76
2021/10/13 02:19:45;;;;;;;10.27;9.02;;;;;;;11.95;72.25;98993.41;5031448;28;20036;-77
2021/10/13 02:22:11;;;;;;;10.18;8.55;;;;;;;11.66;71.71;98938.97;5031481;28;20025;-76
2021/10/13 02:24:44;;;;;;;9.13;8.18;;;;;;;11.99;71.84;99021.09;5031465;28;20120;-83
2021/10/13 02:27:13;;;;;;;10.25;9.15;;;;;;;11.56;71.67;98943.81;5031467;28;20494;-83
2021/10/13 02:29:39;;;;;;;9.68;8.68;;;;;;;11.98;71.45;99022.09;5031520;28;20498;-82
2021/10/13 02:32:06;;;;;;;9.25;8.35;;;;;;;11.96;71.78;99019.66;5030731;28;20030;-82
2021/10/13 02:34:31;;;;;;;9.07;8.10;;;;;;;11.55;71.71;98944.81;5031156;28;20037;-82
2021/10/13 02:36:58;;;;;;;10.32;8.32;;;;;;;11.93;71.73;99003.38;5031121;28;20052;-82
2021/10/13 02:39:23;;;;;;;11.63;9.20;;;;;;;11.95;71.69;99007.44;5031182;28;20029;-82
2021/10/13 02:41:49;;;;;;;9.52;7.88;;;;;;;11.62;71.28;98956.22;5031574;28;20384;-82
2021/10/13 02:44:14;;;;;;;8.63;7.72;;;;;;;11.69;71.21;98981.69;5031402;28;20092;-83
2021/10/13 02:46:49;;;;;;;9.73;8.65;;;;;;;12.01;71.31;99027.81;5013773;28;20475;-83
2021/10/13 02:49:30;;;;;;;9.32;8.27;;;;;;;11.90;71.32;99006.41;5031389;28;20036;-82
2021/10/13 02:52:04;;;;;;;9.48;8.20;;;;;;;12.02;71.85;99028.63;5031293;28;20060;-82
2021/10/13 02:54:41;;;;;;;7.90;7.03;;;;;;;12.01;71.07;99034.94;5031526;28;20491;-83
2021/10/13 02:57:07;;;;;;;9.73;8.13;;;;;;;11.90;71.41;99025.75;5031216;28;20452;-82
2021/10/13 02:59:42;;;;;;;10.45;9.35;;;;;;;12.00;71.44;99044.72;5031159;28;20496;-82
2021/10/13 03:02:15;;;;;;;11.93;9.93;;;;;;;12.03;71.60;99054.06;5031130;28;20026;-82
2021/10/13 03:04:49;;;;;;;9.60;8.15;;;;;;;12.02;71.54;99049.81;5031118;28;20505;-82
2021/10/13 03:07:19;;;;;;;10.32;8.60;;;;;;;11.75;71.94;99011.81;5013431;28;20519;-82
2021/10/13 03:09:57;;;;;;;10.05;8.40;;;;;;;12.01;71.03;99050.81;5031244;28;20026;-82
2021/10/13 03:12:26;;;;;;;10.40;8.32;;;;;;;12.00;71.79;99050.00;5031329;28;20033;-82
2021/10/13 03:14:55;;;;;;;10.80;8.98;;;;;;;11.72;71.60;99004.28;5030769;28;20052;-82
2021/10/13 03:17:22;;;;;;;8.82;7.50;;;;;;;12.00;71.47;99041.25;5031033;28;20052;-83
2021/10/13 03:19:48;;;;;;;8.85;7.85;;;;;;;11.55;71.93;98971.25;5030950;28;20474;-83
2021/10/13 03:22:14;;;;;;;8.80;7.90;;;;;;;11.71;71.68;99002.63;5013360;28;20433;-82
2021/10/13 03:24:40;;;;;;;9.70;8.70;;;;;;;11.94;72.00;99026.97;5031068;28;20029;-76
2021/10/13 03:27:06;;;;;;;10.95;8.68;;;;;;;12.06;71.96;99043.09;5030930;28;20064;-76
2021/10/13 03:29:31;;;;;;;9.85;8.85;;;;;;;12.06;70.98;99043.09;5013496;28;20061;-76
2021/10/13 03:31:57;;;;;;;9.90;8.50;;;;;;;12.02;70.99;99045.31;5030976;28;20108;-77
2021/10/13 03:34:23;;;;;;;9.30;8.35;;;;;;;12.02;71.21;99047.97;5030961;28;20053;-76
2021/10/13 03:36:49;;;;;;;9.52;7.60;;;;;;;11.89;71.19;99047.94;5030874;28;20086;-76
2021/10/13 03:39:17;;;;;;;9.32;8.00;;;;;;;11.99;70.92;99047.56;5013081;28;20029;-76
2021/10/13 03:41:43;;;;;;;8.27;7.47;;;;;;;11.65;70.57;98995.50;5012716;28;20055;-77
2021/10/13 03:44:09;;;;;;;9.52;8.52;;;;;;;11.54;70.60;98970.44;5014324;28;20060;-76
2021/10/13 03:46:35;;;;;;;8.32;7.53;;;;;;;11.42;70.45;98956.97;5034511;28;20071;-77
2021/10/13 03:49:00;;;;;;;9.50;8.60;;;;;;;11.97;70.88;99057.53;5034519;28;20056;-77
2021/10/13 03:51:26;;;;;;;10.00;9.00;;;;;;;11.65;69.90;99019.31;5034374;28;20026;-76
2021/10/13 03:53:52;;;;;;;8.70;7.80;;;;;;;11.94;70.56;99064.03;5034539;28;20029;-76
2021/10/13 03:56:18;;;;;;;10.00;9.00;;;;;;;11.85;70.68;99057.25;5034379;28;20025;-77
2021/10/13 03:58:44;;;;;;;11.23;9.05;;;;;;;11.65;70.51;99024.59;5034326;28;20037;-77
2021/10/13 04:01:11;;;;;;;10.95;8.80;;;;;;;11.59;70.27;99012.97;5034364;28;20022;-76
2021/10/13 04:03:37;;;;;;;10.10;8.25;;;;;;;11.60;70.37;99025.19;5034173;28;20083;-76
2021/10/13 04:06:03;;;;;;;9.82;8.82;;;;;;;11.83;70.41;99045.22;5034324;28;20033;-77
2021/10/13 04:08:28;;;;;;;9.48;8.48;;;;;;;11.68;70.81;99030.28;5033942;28;20509;-77
2021/10/13 04:10:53;;;;;;;10.30;9.30;;;;;;;11.71;70.89;99037.03;5034058;28;20108;-76
2021/10/13 04:13:19;;;;;;;11.05;9.88;;;;;;;11.94;70.17;99071.97;5016229;28;20040;-76
2021/10/13 04:15:44;;;;;;;10.63;9.52;;;;;;;11.96;70.68;99083.16;5015887;28;20481;-76
2021/10/13 04:18:10;;;;;;;11.07;9.75;;;;;;;11.49;70.83;98996.66;5015924;28;20065;-76
2021/10/13 04:20:35;;;;;;;11.30;10.18;;;;;;;11.91;69.92;99090.88;5033826;28;20029;-77
2021/10/13 04:23:03;;;;;;;10.20;9.20;;;;;;;11.62;70.03;99038.19;5033793;28;20072;-76
2021/10/13 04:25:29;;;;;;;9.38;8.48;;;;;;;11.83;69.98;99082.25;5033696;28;20025;-76
2021/10/13 04:27:54;;;;;;;11.40;10.20;;;;;;;11.39;69.99;99018.19;5033823;28;20025;-77
2021/10/13 04:30:20;;;;;;;11.13;9.98;;;;;;;11.33;70.26;99026.88;5016050;28;20088;-77
2021/10/13 04:32:46;;;;;;;11.05;9.85;;;;;;;11.77;70.74;99089.97;5033791;28;20013;-76
2021/10/13 04:35:12;;;;;;;10.63;9.52;;;;;;;11.60;70.61;99074.59;5033737;28;20030;-77
2021/10/13 04:37:38;;;;;;;12.85;10.65;;;;;;;11.65;70.42;99075.66;5033589;28;20411;-76
2021/10/13 04:40:06;;;;;;;12.60;11.27;;;;;;;11.76;70.54;99104.19;5033170;28;20033;-76
2021/10/13 04:42:31;;;;;;;14.18;12.77;;;;;;;11.74;70.47;99108.84;5033197;28;20100;-77
2021/10/13 04:44:57;;;;;;;13.18;11.80;;;;;;;11.34;71.12;99052.31;5033466;28;20113;-76
2021/10/13 04:47:22;;;;;;;15.38;12.13;;;;;;;11.20;70.77;99036.56;5033353;28;20029;-76
2021/10/13 04:49:48;;;;;;;15.13;13.52;;;;;;;11.42;70.71;99094.44;5033362;28;20025;-76
2021/10/13 04:52:14;;;;;;;15.23;12.70;;;;;;;11.66;71.24;99130.16;5033220;28;20079;-76
2021/10/13 04:54:39;;;;;;;15.30;11.55;;;;;;;11.46;71.04;99100.97;5033180;28;20531;-77
2021/10/13 04:57:05;;;;;;;16.05;12.10;;;;;;;11.23;70.92;99070.53;5032411;28;20021;-76
2021/10/13 04:59:30;;;;;;;16.48;12.02;;;;;;;11.12;71.06;99062.09;5032368;28;20079;-76
2021/10/13 05:01:56;;;;;;;15.20;13.57;;;;;;;11.07;71.32;99047.84;5032904;28;20482;-77
2021/10/13 05:04:21;;;;;;;13.32;11.70;;;;;;;11.09;70.91;99051.09;5015159;28;20074;-76
2021/10/13 05:06:47;;;;;;;16.25;12.57;;;;;;;11.51;71.23;99113.59;5033136;28;20101;-76
2021/10/13 05:09:12;;;;;;;14.63;13.05;;;;;;;11.67;71.20;99141.56;5032904;28;20114;-76
2021/10/13 05:11:38;;;;;;;17.00;14.27;;;;;;;11.60;70.44;99127.47;5032758;28;20025;-76
2021/10/13 05:14:03;;;;;;;15.30;13.70;;;;;;;11.32;71.04;99106.38;5032361;28;20037;-76
2021/10/13 05:16:29;;;;;;;14.52;13.02;;;;;;;11.31;71.25;99094.97;5032551;28;20518;-76
2021/10/13 05:18:55;;;;;;;14.85;13.27;;;;;;;11.63;70.95;99149.06;5014809;28;20033;-77
2021/10/13 05:21:20;;;;;;;16.25;14.55;;;;;;;11.42;70.66;99104.19;5032546;28;20025;-76
2021/10/13 05:23:45;;;;;;;17.52;15.18;;;;;;;11.19;71.10;99059.53;5032680;28;20497;-76
2021/10/13 05:26:11;;;;;;;16.00;14.13;;;;;;;11.26;71.08;99080.72;5031851;28;20478;-75
2021/10/13 05:28:36;;;;;;;16.70;13.88;;;;;;;11.49;70.74;99114.81;5031875;28;20179;-75
2021/10/13 05:31:02;;;;;;;15.98;14.13;;;;;;;11.86;70.73;99180.56;5031942;28;20049;-77
2021/10/13 05:33:27;;;;;;;16.25;13.43;;;;;;;11.61;70.35;99123.81;5032367;28;20111;-76
2021/10/13 05:35:53;;;;;;;14.85;13.23;;;;;;;11.80;70.34;99157.53;5031721;28;20029;-76
2021/10/13 05:38:19;;;;;;;16.13;14.43;;;;;;;11.21;70.47;99065.44;5031713;28;20037;-76
2021/10/13 05:40:44;;;;;;;17.42;15.52;;;;;;;11.81;70.61;99153.88;5031351;28;20038;-76
2021/10/13 05:43:09;;;;;;;17.73;14.35;;;;;;;11.55;70.29;99108.75;5031688;28;20021;-76
2021/10/13 05:45:35;;;;;;;16.02;13.52;;;;;;;11.37;71.06;99088.91;5031926;28;20472;-76
2021/10/13 05:48:00;;;;;;;19.92;16.10;;;;;;;11.56;70.47;99136.81;5031934;28;20502;-76
2021/10/13 05:50:26;;;;;;;22.98;20.40;;;;;;;11.96;70.52;99183.69;5031987;28;20505;-76
2021/10/13 05:52:51;;;;;;;24.25;20.25;;;;;;;12.00;70.03;99187.59;5013873;28;20057;-76
2021/10/13 05:55:17;;;;;;;17.17;13.30;;;;;;;11.49;70.30;99107.69;5031030;28;20096;-76
2021/10/13 05:57:42;;;;;;;17.17;15.20;;;;;;;12.08;69.93;99195.34;5031473;28;20033;-76
2021/10/13 06:00:08;;;;;;;18.00;14.73;;;;;;;11.77;70.10;99134.09;5030846;28;20034;-76
2021/10/13 06:02:34;;;;;;;18.73;15.60;;;;;;;11.68;70.24;99128.13;5031112;28;20091;-76
2021/10/13 06:05:03;;;;;;;17.48;14.88;;;;;;;11.78;70.10;99135.75;5031459;28;20560;-76
2021/10/13 06:07:28;;;;;;;16.27;13.95;;;;;;;11.72;69.81;99132.03;5030491;28;20049;-76
2021/10/13 06:09:54;;;;;;;17.23;15.05;;;;;;;12.31;69.91;99216.22;5031384;28;20474;-77
2021/10/13 06:12:19;;;;;;;14.10;12.52;;;;;;;12.32;69.39;99211.75;5031207;28;20529;-76
2021/10/13 06:14:44;;;;;;;14.35;12.50;;;;;;;12.24;69.07;99199.50;5028119;28;21007;-76
2021/10/13 06:17:10;;;;;;;12.15;10.85;;;;;;;12.02;68.82;99177.63;5030323;28;20120;-76
2021/10/13 06:19:35;;;;;;;14.88;12.23;;;;;;;12.43;68.90;99250.91;5027877;28;20037;-76
2021/10/13 06:22:01;;;;;;;14.63;12.90;;;;;;;11.99;68.90;99172.72;5007822;28;20075;-77
2021/10/13 06:24:26;;;;;;;13.27;11.85;;;;;;;11.92;68.43;99160.47;5027088;28;20029;-77
2021/10/13 06:26:52;;;;;;;14.15;12.23;;;;;;;12.02;68.84;99193.50;5029916;28;20033;-76
2021/10/13 06:29:17;;;;;;;14.65;12.85;;;;;;;12.13;68.23;99192.13;5012943;28;20041;-76
2021/10/13 06:31:42;;;;;;;14.10;12.60;;;;;;;12.05;68.79;99189.66;5030518;28;20033;-76
2021/10/13 06:34:08;;;;;;;12.55;10.82;;;;;;;12.14;68.53;99211.47;5030100;28;20041;-76
2021/10/13 06:36:33;;;;;;;12.85;11.55;;;;;;;12.41;67.98;99251.09;5030250;28;20120;-76
2021/10/13 06:38:59;;;;;;;13.02;11.63;;;;;;;12.19;68.20;99222.28;5029985;28;20038;-76
2021/10/13 06:41:27;;;;;;;13.38;11.98;;;;;;;12.09;68.27;99204.13;5019708;28;20168;-76
2021/10/13 06:43:53;;;;;;;15.80;13.23;;;;;;;12.19;68.25;99222.28;5025349;28;20521;-76
2021/10/13 06:46:18;;;;;;;14.13;12.73;;;;;;;12.46;68.76;99258.44;5030893;28;20112;-76
2021/10/13 06:48:43;;;;;;;14.13;12.73;;;;;;;12.25;68.10;99222.31;5012830;28;20029;-76
2021/10/13 06:51:09;;;;;;;14.98;12.75;;;;;;;12.09;68.20;99193.53;5030441;28;20425;-76
2021/10/13 06:53:34;;;;;;;15.77;12.10;;;;;;;12.39;68.12;99247.00;5027508;28;20076;-76
2021/10/13 06:56:00;;;;;;;12.63;11.32;;;;;;;11.99;68.12;99178.00;5030217;28;20022;-76
2021/10/13 06:58:25;;;;;;;11.68;10.48;;;;;;;12.47;68.29;99253.97;5030716;28;20030;-77
2021/10/13 07:00:51;;;;;;;13.45;12.10;;;;;;;12.28;68.00;99221.09;5030991;28;20041;-76
2021/10/13 07:03:17;;;;;;;13.90;12.23;;;;;;;12.60;67.87;99283.16;5029628;28;20021;-76
2021/10/13 07:05:42;;;;;;;14.68;12.35;;;;;;;12.60;68.00;99278.69;5019256;28;20097;-76
2021/10/13 07:08:08;;;;;;;15.27;13.20;;;;;;;12.32;67.33;99233.75;5024370;28;20033;-76
2021/10/13 07:10:33;;;;;;;16.35;13.68;;;;;;;12.07;67.38;99199.03;4993434;28;20044;-76
2021/10/13 07:12:59;;;;;;;15.40;13.52;;;;;;;12.54;67.70;99260.94;5030657;28;20033;-76
2021/10/13 07:15:24;;;;;;;14.73;13.23;;;;;;;12.25;67.69;99213.56;5027114;28;20045;-76
2021/10/13 07:17:49;;;;;;;16.73;15.02;;;;;;;12.57;67.72;99265.84;5015939;28;20422;-77
2021/10/13 07:20:15;;;;;;;14.00;12.30;;;;;;;12.86;67.58;99295.72;5023397;28;20034;-76
2021/10/13 07:22:41;;;;;;;15.05;13.45;;;;;;;12.83;67.18;99302.22;5014852;28;20123;-76
2021/10/13 07:25:08;;;;;;;15.57;13.88;;;;;;;12.86;67.24;99293.88;5028576;28;20024;-82
2021/10/13 07:27:34;;;;;;;16.48;14.07;;;;;;;12.47;67.22;99246.03;5023455;28;20513;-81
2021/10/13 07:30:01;;;;;;;17.77;15.40;;;;;;;12.57;67.22;99263.19;5034394;28;20025;-81
2021/10/13 07:32:29;;;;;;;17.80;15.57;;;;;;;12.73;67.34;99281.41;5034486;28;20025;-82
2021/10/13 07:34:54;;;;;;;19.05;16.80;;;;;;;12.97;67.31;99314.50;5014378;28;20033;-82
2021/10/13 07:37:20;;;;;;;18.52;13.95;;;;;;;13.01;67.24;99314.94;5033130;28;20111;-82
2021/10/13 07:39:47;;;;;;;16.17;14.30;;;;;;;12.94;67.39;99304.31;5033224;28;20108;-81
2021/10/13 07:42:17;;;;;;;16.65;13.93;;;;;;;12.60;67.25;99249.53;5034348;28;20532;-82
2021/10/13 07:44:44;;;;;;;17.70;15.55;;;;;;;12.79;67.16;99278.97;5034225;28;20044;-82
2021/10/13 07:47:09;;;;;;;19.48;16.08;;;;;;;12.69;67.42;99251.03;5034091;28;20033;-82
2021/10/13 07:49:36;;;;;;;16.83;12.85;;;;;;;12.54;66.94;99217.75;5015786;28;20018;-82
2021/10/13 07:52:02;;;;;;;15.05;12.88;;;;;;;12.91;67.24;99288.81;5033553;28;20025;-82
2021/10/13 07:54:28;;;;;;;14.95;12.80;;;;;;;12.75;67.21;99251.25;5033465;28;20040;-83
2021/10/13 07:56:53;;;;;;;14.60;12.93;;;;;;;13.22;67.13;99314.00;5015914;28;20055;-84
2021/10/13 07:59:19;;;;;;;14.30;12.80;;;;;;;13.16;66.62;99312.94;5033678;28;20025;-83
2021/10/13 08:01:44;;;;;;;13.82;12.43;;;;;;;13.27;66.16;99336.22;5034090;28;20025;-83
2021/10/13 08:04:09;;;;;;;13.80;11.85;;;;;;;13.28;65.76;99331.75;5019763;28;20499;-82
2021/10/13 08:06:35;;;;;;;15.82;14.23;;;;;;;13.30;65.35;99327.06;5033277;28;20037;-82
2021/10/13 08:09:00;;;;;;;17.45;14.60;;;;;;;12.85;65.16;99273.69;5026285;28;20029;-83
2021/10/13 08:11:26;;;;;;;14.77;12.98;;;;;;;13.15;64.72;99300.69;5030465;28;20029;-83
2021/10/13 08:13:51;;;;;;;15.02;13.48;;;;;;;12.97;64.54;99295.97;5033839;28;20033;-82
2021/10/13 08:16:17;;;;;;;13.45;12.05;;;;;;;13.26;64.74;99329.31;5032556;28;20049;-82
2021/10/13 08:18:43;;;;;;;15.02;13.43;;;;;;;12.94;64.41;99274.34;5025229;28;20030;-82
2021/10/13 08:21:09;;;;;;;14.90;13.10;;;;;;;12.98;64.50;99292.28;5033075;28;20473;-83
2021/10/13 08:23:34;;;;;;;13.88;12.48;;;;;;;13.15;64.45;99308.66;5033162;28;20064;-76
2021/10/13 08:26:00;;;;;;;14.00;11.60;;;;;;;13.31;64.15;99336.66;5033230;28;20091;-77
2021/10/13 08:28:27;;;;;;;17.95;14.73;;;;;;;13.32;64.39;99320.53;5030572;28;20018;-76
2021/10/13 08:30:52;;;;;;;15.07;13.45;;;;;;;13.29;64.06;99317.47;5003164;28;20410;-77
2021/10/13 08:33:18;;;;;;;14.85;13.27;;;;;;;12.96;63.91;99281.06;5014930;28;20030;-76
2021/10/13 08:35:43;;;;;;;13.50;11.10;;;;;;;13.02;63.92;99274.16;5033237;28;20033;-76
2021/10/13 08:38:09;;;;;;;14.27;12.68;;;;;;;13.08;63.45;99285.78;5033266;28;20028;-76
2021/10/13 08:40:35;;;;;;;14.18;12.68;;;;;;;13.39;63.45;99339.16;5033067;28;20029;-77
2021/10/13 08:43:02;;;;;;;14.07;12.05;;;;;;;13.42;63.17;99337.94;5032502;28;20052;-77
2021/10/13 08:45:30;;;;;;;13.10;11.80;;;;;;;13.44;63.30;99342.00;5027009;28;20037;-76
2021/10/13 08:47:56;;;;;;;15.63;13.50;;;;;;;13.44;63.08;99347.31;5033043;28;20119;-77
2021/10/13 08:50:23;;;;;;;18.17;15.18;;;;;;;13.17;63.35;99309.28;5014956;28;20021;-76
2021/10/13 08:52:51;;;;;;;17.65;15.73;;;;;;;12.95;62.83;99279.44;5032737;28;20505;-76
2021/10/13 08:55:16;;;;;;;17.67;15.10;;;;;;;13.08;63.10;99280.50;5032435;28;20041;-76
2021/10/13 08:57:42;;;;;;;16.08;13.75;;;;;;;13.32;62.93;99312.59;5015085;28;20017;-76
2021/10/13 09:00:08;;;;;;;16.50;14.15;;;;;;;13.15;62.50;99282.13;5032181;28;20134;-76
2021/10/13 09:02:47;;;;;;;19.05;16.40;;;;;;;13.04;62.72;99251.75;5031915;28;20040;-76
2021/10/13 09:05:17;;;;;;;18.17;15.30;;;;;;;13.26;62.41;99300.13;5027002;28;20486;-76
2021/10/13 09:07:53;;;;;;;18.75;13.65;;;;;;;13.61;61.89;99345.09;5032077;28;20491;-76
2021/10/13 09:10:37;;;;;;;14.75;12.82;;;;;;;13.27;61.82;99303.59;5032453;28;20021;-76
2021/10/13 09:13:10;;;;;;;14.02;12.63;;;;;;;13.57;62.05;99335.91;5012755;28;20491;-75
2021/10/13 09:15:35;;;;;;;16.73;14.93;;;;;;;13.45;61.80;99313.66;5028084;28;20067;-76
2021/10/13 09:18:04;;;;;;;17.33;14.43;;;;;;;13.35;61.72;99293.63;5013634;28;20112;-77
2021/10/13 09:20:34;;;;;;;15.07;13.25;;;;;;;13.44;61.59;99302.22;5006162;28;20034;-76
2021/10/13 09:22:59;;;;;;;18.13;16.13;;;;;;;13.80;62.02;99348.78;5027965;28;20048;-76
2021/10/13 09:25:25;;;;;;;21.35;18.67;;;;;;;13.41;61.37;99289.38;5032069;28;20025;-82
2021/10/13 09:27:51;;;;;;;21.75;18.20;;;;;;;13.29;60.88;99262.63;5031880;28;20465;-81
2021/10/13 09:30:25;;;;;;;17.77;15.40;;;;;;;13.66;60.54;99322.25;5001841;28;20034;-82
2021/10/13 09:32:50;;;;;;;13.52;12.10;;;;;;;13.44;60.41;99285.50;5032065;28;20087;-81
2021/10/13 09:35:26;;;;;;;15.43;13.80;;;;;;;13.90;59.96;99357.16;5031596;28;20029;-81
2021/10/13 09:37:51;;;;;;;14.88;13.38;;;;;;;13.79;60.10;99323.28;5030836;28;20056;-81
2021/10/13 09:40:30;;;;;;;16.73;15.02;;;;;;;13.97;59.90;99355.31;5031438;28;20029;-81
2021/10/13 09:42:59;;;;;;;18.75;16.85;;;;;;;13.94;59.95;99359.19;5030715;28;20056;-81
2021/10/13 09:45:27;;;;;;;22.60;18.85;;;;;;;13.50;59.96;99282.84;5031526;28;20032;-81
2021/10/13 09:48:00;;;;;;;15.70;12.98;;;;;;;13.72;59.54;99319.78;5013413;28;20036;-81
2021/10/13 09:50:47;;;;;;;17.00;15.27;;;;;;;13.87;58.33;99353.06;5024199;28;20053;-82
2021/10/13 09:53:15;;;;;;;19.05;16.98;;;;;;;13.91;59.21;99353.47;5025727;28;20104;-81
2021/10/13 09:55:41;;;;;;;15.00;13.38;;;;;;;13.84;58.89;99342.88;5024454;28;20092;-82
2021/10/13 09:58:27;;;;;;;17.58;15.82;;;;;;;13.90;58.84;99360.63;5029467;28;20041;-82
2021/10/13 10:01:13;;;;;;;18.55;16.55;;;;;;;13.46;58.70;99286.13;5001841;28;20037;-82
2021/10/13 10:03:41;;;;;;;18.08;16.20;;;;;;;13.92;59.42;99366.56;5005307;28;20115;-82
2021/10/13 10:06:07;;;;;;;16.35;14.52;;;;;;;13.77;59.27;99326.13;5018567;28;20030;-82
2021/10/13 10:08:57;;;;;;;23.48;20.25;;;;;;;14.00;59.43;99358.38;5005179;28;20683;-82
2021/10/13 10:11:40;;;;;;;15.32;13.82;;;;;;;13.55;58.82;99287.56;5003137;28;20029;-81
2021/10/13 10:14:32;;;;;;;15.73;14.13;;;;;;;14.04;58.95;99365.94;5028849;28;20029;-79
2021/10/13 10:16:59;;;;;;;17.10;15.35;;;;;;;13.91;59.38;99345.53;5015086;28;20133;-82
2021/10/13 10:19:45;;;;;;;17.60;13.85;;;;;;;14.02;59.19;99352.06;5028661;28;20472;-82
2021/10/13 10:22:15;;;;;;;21.20;17.08;;;;;;;14.12;59.62;99376.34;5010526;28;20506;-82
2021/10/13 10:24:54;;;;;;;17.75;14.07;;;;;;;13.92;59.12;99326.75;5027548;28;20107;-76
2021/10/13 10:27:23;;;;;;;13.23;11.50;;;;;;;14.21;59.10;99369.84;5012926;28;20490;-76
2021/10/13 10:29:59;;;;;;;20.67;15.88;;;;;;;13.43;58.09;99244.91;5025904;28;20029;-76
2021/10/13 10:32:25;;;;;;;15.30;13.65;;;;;;;14.04;59.24;99350.00;5027354;28;20025;-76
2021/10/13 10:35:05;;;;;;;15.40;13.80;;;;;;;14.32;58.81;99363.91;5031456;28;20039;-77
2021/10/13 10:37:43;;;;;;;16.40;11.75;;;;;;;14.21;59.03;99344.09;5031195;28;20033;-76
2021/10/13 10:40:15;;;;;;;14.38;12.73;;;;;;;14.17;59.20;99326.13;5030647;28;20506;-77
2021/10/13 10:42:51;;;;;;;15.90;14.05;;;;;;;14.41;58.59;99361.84;5031482;28;20033;-76
2021/10/13 10:45:23;;;;;;;17.70;15.38;;;;;;;13.92;57.87;99291.41;5031316;28;20032;-76
2021/10/13 10:47:56;;;;;;;16.65;14.38;;;;;;;14.40;58.05;99369.00;5013046;28;20025;-76
2021/10/13 10:50:30;;;;;;;17.15;13.68;;;;;;;14.38;57.55;99365.72;5030795;28;20121;-76
2021/10/13 10:53:19;;;;;;;16.00;13.85;;;;;;;14.38;57.65;99362.25;5012859;28;20087;-76
2021/10/13 10:55:46;;;;;;;16.85;15.05;;;;;;;14.23;58.06;99355.34;5030988;28;20505;-77
2021/10/13 10:58:20;;;;;;;18.45;15.13;;;;;;;14.42;58.27;99374.09;5030554;28;20083;-76
2021/10/13 11:00:59;;;;;;;16.85;15.15;;;;;;;14.09;58.26;99331.63;5031026;28;20059;-76
2021/10/13 11:03:31;;;;;;;16.13;14.55;;;;;;;14.41;58.08;99367.97;5030749;28;20056;-76
2021/10/13 11:06:09;;;;;;;16.67;13.98;;;;;;;14.16;57.52;99337.78;5030690;28;20083;-76
2021/10/13 11:08:34;;;;;;;13.98;12.48;;;;;;;14.42;58.20;99363.47;5030676;28;20029;-76
2021/10/13 11:11:20;;;;;;;16.58;13.70;;;;;;;14.30;56.91;99344.69;5012838;28;20098;-76
2021/10/13 11:14:01;;;;;;;13.13;11.82;;;;;;;14.22;57.44;99323.69;5030140;28;20524;-77
2021/10/13 11:16:27;;;;;;;15.15;13.07;;;;;;;14.53;57.45;99371.66;5010855;28;20060;-76
2021/10/13 11:18:53;;;;;;;14.73;13.23;;;;;;;14.22;57.30;99323.69;5024372;28;20109;-76
2021/10/13 11:21:19;;;;;;;16.45;13.00;;;;;;;14.49;57.07;99375.75;5030749;28;20021;-77
2021/10/13 11:23:46;;;;;;;16.15;13.43;;;;;;;14.01;57.34;99290.19;5029078;28;20097;-76
2021/10/13 11:26:11;;;;;;;15.00;13.00;;;;;;;14.37;57.42;99353.47;5018726;28;20509;-76